Aeroporto :







RITROVATECI SU...

 
LOGIN :

Iscrizione | Disclaimer

   EN    FR    IT 

 









Sommario :    VFR   VFR Marginale   IFR   IFR Intensivo   IFR Molto Intensivo
Visibilità : 
Base nubi : 
>= 8 km
>= 3000ft
5 / 8 km
1000 / 3000 ft
1500m / 5 km
500 / 1000 ft
800 / 1500m
200 / 500 ft
< 800m
< 200 ft
Simboli :   Temporali  Nebbia  Neve Forte  Precipitazioni Forti  Vento > 20 kt






- Altitudine del aeroporto : 160 ft
- Codice IATA : YYG


CYYG - Charlottetown

ULTIMO METAR :
  • 260600Z 18010KT 12SM -RA OVC020 03/03 A3025 RMK NS8 SLP248

METARs OBSOLETI :
  • 260500Z 18013KT 15SM OVC034 03/02 A3027 RMK NS8 SLP254
  • 260423Z 18011KT 10SM -RA OVC032 02/01 A3028 RMK NS8 SLP258
  • 260400Z 18012KT 10SM -RASN OVC034 02/01 A3029 RMK NS8 SLP262

TAF TAF CYYG
Valido dal 26 a 06 ore il 26 a 18 ore UTC


260538Z 2606/2618 18012KT P6SM FEW008 OVC030
TEMPO 2606/2608 5SM -RA BR SCT008 OVC012
FM260800 VRB03KT 3SM -RA BR BKN005 OVC010
TEMPO 2608/2618 P6SM -RA SCT005 OVC010 RMK NXT FCST BY 261200Z
FIR CZQM / America del Nord



MetMap, La meteo Aeronautica in un colpo d'occhio ! - Copyright ORBIFLY Dicembre 2007 - Disclaimer

ORBIFLY MET'MAP TEAM :

Programmazione e sviluppo : Alexandra Zaïnal
Concezione : Baudouin d'Aumeries
Aiuto per la programmazione : Marc-Olivier Méhu
Supporto tecnico e logistico : Manuel Goepfert
Aiuto per la traduzione : Arnaldo La Scala

Contatto : metmap@orbifly.com




FONTI E CREDITI :

   NOAA